Time;durP1;ratioP1;P1;durP2;ratioP2;P2;SDS_P1;SDS_P2;PMS_P1;PMS_P2;Temp;Humidity;BMP_temperature;BMP_pressure;BME280_temperature;BME280_humidity;BME280_pressure;Samples;Min_cycle;Max_cycle;Signal;HPM_P1;HPM_P2
2022/10/10 00:04:03;;;;;;;15.40;9.20;;;;;;;10.02;60.44;100084.80;224218;1245;139781;-64
2022/10/10 00:09:06;;;;;;;16.20;8.80;;;;;;;9.93;60.55;100079.86;224146;1247;139692;-65
2022/10/10 00:14:09;;;;;;;14.30;9.10;;;;;;;9.86;60.75;100082.30;223603;1253;140279;-65
2022/10/10 00:19:12;;;;;;;15.70;9.00;;;;;;;9.81;60.82;100078.09;224149;1240;139501;-68
2022/10/10 00:24:15;;;;;;;16.90;9.20;;;;;;;9.81;60.69;100071.34;223772;1255;140460;-65
2022/10/10 00:29:18;;;;;;;13.00;9.10;;;;;;;9.88;61.07;100060.04;224166;1243;140095;-67
2022/10/10 00:34:21;;;;;;;15.20;9.30;;;;;;;9.98;61.36;100058.58;224117;1241;139226;-67
2022/10/10 00:39:24;;;;;;;14.60;9.30;;;;;;;10.03;61.18;100055.16;224254;1247;140762;-66
2022/10/10 00:44:27;;;;;;;14.30;8.40;;;;;;;10.02;61.10;100052.89;224221;1247;140336;-66
2022/10/10 00:49:30;;;;;;;14.20;9.00;;;;;;;9.97;61.03;100046.88;223602;1255;140576;-65
2022/10/10 00:54:36;;;;;;;14.20;8.70;;;;;;;9.92;60.95;100039.50;224269;1247;140545;-67
2022/10/10 00:59:41;;;;;;;;;;;;;;;9.86;61.19;100036.20;223778;1255;139988;-67
2022/10/10 01:04:44;;;;;;;15.70;8.20;;;;;;;9.80;61.11;100036.79;223727;1247;125740;-65
2022/10/10 01:09:50;;;;;;;14.70;8.30;;;;;;;9.77;61.24;100031.63;224042;1245;140842;-66
2022/10/10 01:15:14;;;;;;;13.00;8.80;;;;;;;9.74;61.21;100028.75;224183;1247;139503;-65
2022/10/10 01:20:58;;;;;;;14.20;8.40;;;;;;;9.67;61.14;100018.40;223634;1254;139663;-70
2022/10/10 01:26:22;;;;;;;13.10;8.50;;;;;;;9.59;61.31;100022.13;223537;1262;139696;-68
2022/10/10 01:31:28;;;;;;;15.40;8.50;;;;;;;9.56;61.32;100017.83;223663;1254;141028;-68
2022/10/10 01:37:04;;;;;;;11.10;8.20;;;;;;;9.58;61.45;100014.36;224182;1240;140173;-69
2022/10/10 01:42:19;;;;;;;15.40;8.00;;;;;;;9.55;61.37;100014.32;223597;1251;140369;-68
2022/10/10 01:47:22;;;;;;;14.60;8.80;;;;;;;9.49;61.27;100009.05;224186;1240;140792;-64
2022/10/10 01:52:37;;;;;;;11.90;8.30;;;;;;;9.43;61.28;100003.83;223401;1251;139551;-67
2022/10/10 01:58:14;;;;;;;11.70;8.50;;;;;;;9.36;61.17;100004.49;223694;1254;140104;-65
2022/10/10 02:03:28;;;;;;;12.40;8.00;;;;;;;9.25;61.21;100001.03;223697;1254;140902;-66
2022/10/10 02:08:34;;;;;;;13.60;8.30;;;;;;;9.13;61.25;100000.11;223582;1248;139990;-64
2022/10/10 02:14:01;;;;;;;17.10;8.90;;;;;;;9.07;61.43;99999.11;223627;1254;139485;-65
2022/10/10 02:19:09;;;;;;;13.80;8.10;;;;;;;9.04;61.60;99995.01;223651;1248;141674;-65
2022/10/10 02:24:13;;;;;;;13.50;8.10;;;;;;;8.98;61.80;99984.59;223611;1248;139466;-65
2022/10/10 02:29:20;;;;;;;19.70;9.60;;;;;;;8.95;61.77;99981.90;223733;1254;138831;-67
2022/10/10 02:34:28;;;;;;;12.00;8.40;;;;;;;8.97;61.80;99984.67;223624;1254;140538;-65
2022/10/10 02:39:35;;;;;;;16.50;8.80;;;;;;;9.02;61.81;99978.79;223580;1254;140804;-65
2022/10/10 02:44:39;;;;;;;248.60;152.80;;;;;;;9.09;62.28;99976.75;224231;1244;140618;-65
2022/10/10 02:49:42;;;;;;;17.80;10.50;;;;;;;9.18;62.52;99972.10;223412;1254;140674;-64
2022/10/10 02:54:45;;;;;;;13.20;9.20;;;;;;;9.18;62.17;99966.25;223567;1250;140017;-64
2022/10/10 02:59:48;;;;;;;42.40;29.40;;;;;;;9.13;61.89;99965.95;223568;1248;139426;-64
2022/10/10 03:04:51;;;;;;;30.60;18.60;;;;;;;9.06;61.84;99964.27;223719;1254;140602;-64
2022/10/10 03:09:54;;;;;;;12.80;8.40;;;;;;;9.05;62.00;99966.28;223484;1248;139687;-64
2022/10/10 03:14:59;;;;;;;15.00;8.90;;;;;;;8.96;61.93;99961.14;223613;1251;139243;-63
2022/10/10 03:20:07;;;;;;;12.00;7.90;;;;;;;8.90;61.84;99955.56;224165;1247;139647;-64
2022/10/10 03:25:10;;;;;;;11.40;7.90;;;;;;;8.86;61.59;99955.21;223624;1254;139488;-63
2022/10/10 03:30:13;;;;;;;14.00;9.40;;;;;;;8.81;62.03;99961.60;224150;1247;139619;-64
2022/10/10 03:35:16;;;;;;;13.50;8.60;;;;;;;8.81;61.87;99953.64;223731;1254;139861;-64
2022/10/10 03:40:19;;;;;;;12.90;8.10;;;;;;;8.83;62.04;99955.50;223596;1255;139711;-64
2022/10/10 03:45:23;;;;;;;11.50;8.40;;;;;;;8.82;62.10;99942.61;224160;1254;139617;-65
2022/10/10 03:50:26;;;;;;;12.40;8.20;;;;;;;8.79;61.72;99938.66;223596;1254;139743;-62
2022/10/10 03:55:29;;;;;;;25.10;13.20;;;;;;;8.77;62.06;99939.46;223557;1247;139289;-62
2022/10/10 04:00:32;;;;;;;11.10;8.60;;;;;;;8.75;61.80;99934.21;224055;1255;140356;-62
2022/10/10 04:05:37;;;;;;;10.80;8.20;;;;;;;8.67;61.72;99928.54;224232;1247;139516;-62
2022/10/10 04:10:40;;;;;;;12.10;8.30;;;;;;;8.58;61.53;99918.61;223517;1254;139613;-67
2022/10/10 04:15:43;;;;;;;12.10;8.10;;;;;;;8.53;61.52;99921.32;223627;1257;139478;-66
2022/10/10 04:20:46;;;;;;;13.10;8.10;;;;;;;8.47;61.64;99922.25;223619;1254;139471;-64
2022/10/10 04:25:51;;;;;;;13.50;7.70;;;;;;;8.40;61.84;99917.55;223576;1254;139478;-64
2022/10/10 04:30:55;;;;;;;17.70;8.40;;;;;;;8.35;61.81;99919.86;224188;1247;138954;-66
2022/10/10 04:35:58;;;;;;;12.00;8.10;;;;;;;8.35;61.97;99926.23;223724;1251;140945;-64
2022/10/10 04:41:02;;;;;;;9.80;7.70;;;;;;;8.38;61.90;99927.01;223614;1254;139588;-65
2022/10/10 04:46:05;;;;;;;13.00;8.60;;;;;;;8.38;62.09;99926.12;223554;1257;139465;-65
2022/10/10 04:51:11;;;;;;;14.00;7.70;;;;;;;8.39;61.92;99924.69;223559;1250;140236;-64
2022/10/10 04:56:14;;;;;;;12.80;8.00;;;;;;;8.40;61.97;99923.77;223619;1254;139407;-67
2022/10/10 05:01:17;;;;;;;10.20;7.20;;;;;;;8.36;61.78;99922.48;223597;1251;139287;-68
2022/10/10 05:06:20;;;;;;;14.00;7.50;;;;;;;8.27;61.80;99921.02;224342;1247;139804;-68
2022/10/10 05:11:23;;;;;;;12.60;7.40;;;;;;;8.23;61.72;99920.48;224321;1240;138977;-70
2022/10/10 05:16:26;;;;;;;10.90;6.80;;;;;;;8.19;62.07;99920.65;223653;1254;139159;-66
2022/10/10 05:21:30;;;;;;;11.50;7.00;;;;;;;8.18;62.17;99919.98;223514;1250;139435;-66
2022/10/10 05:26:33;;;;;;;10.60;6.90;;;;;;;8.18;62.18;99918.72;223524;1251;140079;-65
2022/10/10 05:31:36;;;;;;;12.70;7.10;;;;;;;8.20;62.23;99922.18;223580;1251;139542;-67
2022/10/10 05:36:39;;;;;;;13.40;6.90;;;;;;;8.26;62.50;99921.60;224206;1244;140007;-65
2022/10/10 05:41:43;;;;;;;10.00;6.70;;;;;;;8.34;62.19;99927.14;223695;1247;139430;-65
2022/10/10 05:46:45;;;;;;;14.40;7.00;;;;;;;8.42;62.43;99933.41;223381;1243;139246;-66
2022/10/10 05:51:48;;;;;;;16.40;6.90;;;;;;;8.47;62.30;99937.83;223628;1257;139323;-65
2022/10/10 05:56:51;;;;;;;13.80;7.00;;;;;;;8.49;62.26;99941.27;223603;1247;140499;-65
2022/10/10 06:01:55;;;;;;;13.20;6.40;;;;;;;8.54;62.44;99935.59;223620;1254;139762;-66
2022/10/10 06:06:58;;;;;;;12.20;5.80;;;;;;;8.58;62.46;99932.45;223662;1261;139956;-65
2022/10/10 06:12:01;;;;;;;14.10;6.20;;;;;;;8.62;62.62;99934.36;224169;1239;139507;-67
2022/10/10 06:17:04;;;;;;;7.30;5.60;;;;;;;8.68;62.51;99934.50;223734;1254;139510;-72
2022/10/10 06:22:07;;;;;;;9.90;5.50;;;;;;;8.74;62.48;99931.59;224145;1247;139703;-69
2022/10/10 06:27:10;;;;;;;9.90;5.90;;;;;;;8.80;62.61;99931.00;223589;1247;140164;-68
2022/10/10 06:32:13;;;;;;;11.70;6.10;;;;;;;8.86;62.44;99928.11;223574;1254;138776;-68
2022/10/10 06:37:16;;;;;;;18.10;5.30;;;;;;;8.99;62.67;99932.89;223463;1249;139884;-67
2022/10/10 06:42:19;;;;;;;17.40;5.80;;;;;;;9.15;62.79;99932.41;223575;1253;139677;-63
2022/10/10 06:47:27;;;;;;;16.10;6.10;;;;;;;9.32;62.90;99935.05;223664;1253;140325;-64
2022/10/10 06:52:30;;;;;;;12.80;5.80;;;;;;;9.45;62.67;99931.48;223530;1248;139150;-64
2022/10/10 06:57:33;;;;;;;13.00;5.60;;;;;;;9.54;62.46;99927.53;223658;1254;139184;-63
2022/10/10 07:02:39;;;;;;;15.90;5.90;;;;;;;9.62;62.25;99926.66;223624;1254;140467;-65
2022/10/10 07:07:43;;;;;;;12.70;5.90;;;;;;;9.71;62.49;99922.04;223507;1250;140314;-66
2022/10/10 07:12:46;;;;;;;11.90;5.60;;;;;;;9.81;62.52;99925.15;223583;1251;139902;-67
2022/10/10 07:17:56;;;;;;;9.00;5.30;;;;;;;9.91;62.24;99923.80;223709;1254;139501;-66
2022/10/10 07:22:59;;;;;;;10.60;5.60;;;;;;;10.01;62.27;99920.85;223740;1254;140303;-67
2022/10/10 07:28:02;;;;;;;13.70;6.10;;;;;;;10.13;62.17;99914.45;224165;1237;139697;-66
2022/10/10 07:33:06;;;;;;;19.50;6.40;;;;;;;10.23;62.16;99906.90;223560;1257;139623;-66
2022/10/10 07:38:11;;;;;;;15.60;6.50;;;;;;;10.38;62.26;99906.38;223472;1257;140156;-66
2022/10/10 07:43:14;;;;;;;14.00;6.30;;;;;;;10.55;62.21;99906.13;223494;1255;139837;-65
2022/10/10 07:48:17;;;;;;;31.00;8.00;;;;;;;10.74;62.24;99907.69;223948;1247;141884;-65
2022/10/10 07:53:20;;;;;;;15.00;7.50;;;;;;;10.98;62.33;99903.30;224149;1246;140332;-65
2022/10/10 07:58:23;;;;;;;14.40;6.00;;;;;;;11.21;61.84;99897.91;224143;1240;140099;-65
2022/10/10 08:03:26;;;;;;;14.00;5.50;;;;;;;11.41;61.89;99894.90;223564;1254;139692;-66
2022/10/10 08:08:29;;;;;;;13.70;4.70;;;;;;;11.59;61.72;99890.05;223600;1255;140364;-65
2022/10/10 08:13:37;;;;;;;13.10;5.50;;;;;;;11.71;61.33;99880.20;223535;1254;140833;-65
2022/10/10 08:18:43;;;;;;;10.70;5.50;;;;;;;11.84;61.10;99879.00;223940;1244;139512;-66
2022/10/10 08:23:46;;;;;;;12.10;4.80;;;;;;;12.00;61.09;99876.33;224157;1247;140851;-66
2022/10/10 08:28:49;;;;;;;12.60;5.40;;;;;;;12.13;60.56;99866.95;223533;1254;139283;-66
2022/10/10 08:33:55;;;;;;;13.70;5.20;;;;;;;12.18;60.56;99869.31;224106;1247;139371;-66
2022/10/10 08:38:59;;;;;;;11.10;5.20;;;;;;;12.23;60.39;99862.10;224094;1244;139881;-67
2022/10/10 08:44:13;;;;;;;13.80;6.50;;;;;;;12.31;60.37;99854.17;224069;1247;139991;-65
2022/10/10 08:49:24;;;;;;;15.20;5.60;;;;;;;12.46;60.46;99849.05;223356;1253;140137;-65
2022/10/10 08:54:31;;;;;;;15.40;8.20;;;;;;;12.58;60.03;99844.45;223511;1255;139533;-65
2022/10/10 08:59:38;;;;;;;18.60;6.20;;;;;;;12.67;59.85;99839.15;224191;1240;140216;-66
2022/10/10 09:04:42;;;;;;;19.90;6.90;;;;;;;12.79;59.66;99830.42;223465;1257;139888;-66
2022/10/10 09:09:57;;;;;;;14.80;6.10;;;;;;;12.95;59.51;99822.90;223558;1251;140677;-66
2022/10/10 09:15:17;;;;;;;20.30;11.70;;;;;;;13.08;59.36;99809.63;223389;1248;139577;-66
2022/10/10 09:20:47;;;;;;;7.70;4.40;;;;;;;13.20;59.14;99809.81;223521;1253;140299;-66
2022/10/10 09:26:02;;;;;;;8.60;4.20;;;;;;;13.32;58.94;99808.02;224139;1247;141008;-64
2022/10/10 09:31:27;;;;;;;16.80;4.80;;;;;;;13.47;58.83;99797.52;223542;1246;140552;-64
2022/10/10 09:36:34;;;;;;;8.60;3.70;;;;;;;13.63;58.56;99787.79;223493;1261;140652;-63
2022/10/10 09:41:46;;;;;;;13.80;8.20;;;;;;;13.76;58.27;99782.67;223592;1257;139640;-63
2022/10/10 09:46:49;;;;;;;11.00;4.00;;;;;;;13.90;58.21;99781.23;223491;1247;139474;-64
2022/10/10 09:51:52;;;;;;;11.10;4.30;;;;;;;14.01;58.15;99776.80;223465;1254;139943;-64
2022/10/10 09:56:56;;;;;;;6.70;3.20;;;;;;;14.13;57.74;99779.05;223605;1253;139661;-64
2022/10/10 10:02:01;;;;;;;11.50;4.90;;;;;;;14.29;57.58;99771.59;223468;1243;140008;-63
2022/10/10 10:07:26;;;;;;;9.50;3.70;;;;;;;14.41;57.23;99762.58;224049;1246;141888;-63
2022/10/10 10:12:39;;;;;;;9.50;3.20;;;;;;;14.55;56.82;99758.09;223350;1251;139358;-64
2022/10/10 10:17:42;;;;;;;6.80;2.60;;;;;;;14.76;56.83;99753.64;224193;1247;140813;-65
2022/10/10 10:22:45;;;;;;;11.70;3.00;;;;;;;14.98;56.54;99748.05;224129;1247;140293;-64
2022/10/10 10:27:48;;;;;;;10.00;2.80;;;;;;;15.21;56.47;99738.58;223531;1247;140798;-64
2022/10/10 10:33:04;;;;;;;14.30;5.60;;;;;;;15.41;56.12;99730.19;224114;1247;139424;-62
2022/10/10 10:38:15;;;;;;;10.10;3.90;;;;;;;15.58;55.36;99722.16;223620;1254;140077;-63
2022/10/10 10:43:36;;;;;;;7.60;2.60;;;;;;;15.73;54.66;99708.84;224067;1247;139494;-64
2022/10/10 10:49:04;;;;;;;8.90;3.10;;;;;;;15.78;53.97;99712.70;224075;1247;139344;-63
2022/10/10 10:54:34;;;;;;;6.00;2.80;;;;;;;15.80;53.29;99707.23;223600;1248;140311;-63
2022/10/10 10:59:54;;;;;;;9.40;3.00;;;;;;;15.82;52.97;99695.11;223654;1247;139659;-64
2022/10/10 11:05:34;;;;;;;6.30;2.90;;;;;;;15.87;52.76;99686.14;223690;1248;140332;-62
2022/10/10 11:11:00;;;;;;;5.90;3.00;;;;;;;15.93;52.62;99679.43;223389;1251;139874;-62
2022/10/10 11:16:13;;;;;;;8.50;3.50;;;;;;;16.01;52.23;99674.70;223497;1254;139721;-62
2022/10/10 11:22:18;;;;;;;8.00;3.30;;;;;;;16.06;51.74;99671.23;223644;1251;140309;-63
2022/10/10 11:27:47;;;;;;;11.50;2.90;;;;;;;16.16;51.73;99661.39;224148;1252;139416;-63
2022/10/10 11:33:06;;;;;;;4.40;2.20;;;;;;;16.28;51.12;99655.33;223390;1259;139478;-62
2022/10/10 11:38:21;;;;;;;6.40;2.60;;;;;;;16.44;50.82;99645.13;224109;1247;139912;-63
2022/10/10 11:43:47;;;;;;;8.40;2.70;;;;;;;16.63;50.42;99635.26;224049;1241;140507;-63
2022/10/10 11:49:05;;;;;;;7.40;2.50;;;;;;;16.82;50.10;99634.20;223447;1253;140691;-63
2022/10/10 11:54:22;;;;;;;8.50;3.00;;;;;;;16.96;49.66;99626.92;224188;1239;139551;-63
2022/10/10 11:59:31;;;;;;;2.50;2.00;;;;;;;17.07;49.45;99619.82;223670;1251;139955;-63
2022/10/10 12:04:35;;;;;;;6.70;3.40;;;;;;;17.08;49.20;99610.04;224155;1241;139874;-65
2022/10/10 12:09:45;;;;;;;10.90;2.70;;;;;;;17.09;49.00;99600.09;223562;1251;139983;-64
2022/10/10 12:14:53;;;;;;;5.70;2.40;;;;;;;17.13;48.96;99600.73;224092;1239;140440;-64
2022/10/10 12:20:26;;;;;;;7.40;3.00;;;;;;;17.17;48.78;99592.83;223572;1258;139568;-64
2022/10/10 12:25:44;;;;;;;11.10;3.10;;;;;;;17.21;48.59;99584.85;223557;1252;140066;-64
2022/10/10 12:30:56;;;;;;;7.40;2.50;;;;;;;17.22;48.40;99583.83;224056;1244;140940;-64
2022/10/10 12:36:15;;;;;;;7.70;2.70;;;;;;;17.25;48.25;99578.59;224123;1253;139217;-64
2022/10/10 12:41:19;;;;;;;7.60;2.80;;;;;;;17.29;48.31;99569.66;223657;1251;140474;-64
2022/10/10 12:46:25;;;;;;;9.60;3.00;;;;;;;17.32;47.99;99562.94;223518;1251;140916;-64
2022/10/10 12:51:32;;;;;;;10.10;3.10;;;;;;;17.45;48.09;99560.77;223598;1255;138739;-65
2022/10/10 12:56:35;;;;;;;6.70;3.40;;;;;;;17.62;47.69;99546.24;223571;1253;140381;-65
2022/10/10 13:01:40;;;;;;;10.70;3.10;;;;;;;17.85;47.50;99542.45;224129;1252;139804;-64
2022/10/10 13:06:46;;;;;;;7.90;3.10;;;;;;;18.11;47.34;99534.86;224074;1247;139879;-64
2022/10/10 13:12:21;;;;;;;11.10;3.40;;;;;;;18.37;46.94;99529.34;223635;1251;139429;-64
2022/10/10 13:17:36;;;;;;;8.50;3.50;;;;;;;18.53;46.44;99525.83;224304;1244;139764;-64
2022/10/10 13:22:39;;;;;;;3.00;2.10;;;;;;;18.54;46.15;99521.46;223514;1254;141077;-64
2022/10/10 13:27:51;;;;;;;11.10;3.20;;;;;;;18.46;45.94;99516.54;223580;1253;140173;-64
2022/10/10 13:32:55;;;;;;;5.80;2.60;;;;;;;18.36;45.89;99514.70;223562;1253;139385;-64
2022/10/10 13:38:00;;;;;;;5.30;3.00;;;;;;;18.29;45.37;99504.34;224122;1246;139901;-64
2022/10/10 13:43:03;;;;;;;12.50;3.90;;;;;;;18.26;45.60;99502.69;224010;1244;140101;-64
2022/10/10 13:48:26;;;;;;;14.10;5.50;;;;;;;18.21;45.40;99493.39;223472;1257;139434;-64
2022/10/10 13:53:29;;;;;;;14.70;5.20;;;;;;;18.16;45.17;99487.91;224169;1247;139746;-64
2022/10/10 13:58:39;;;;;;;12.20;5.10;;;;;;;18.12;45.18;99481.77;223466;1254;139385;-64
2022/10/10 14:03:45;;;;;;;7.80;3.50;;;;;;;18.06;45.06;99481.81;223536;1254;139417;-65
2022/10/10 14:08:50;;;;;;;7.50;3.30;;;;;;;17.98;45.07;99477.98;223593;1251;139831;-64
2022/10/10 14:14:19;;;;;;;11.50;3.60;;;;;;;17.96;45.30;99472.02;223446;1254;140734;-64
2022/10/10 14:19:22;;;;;;;3.80;2.20;;;;;;;17.94;45.38;99464.13;224165;1247;140122;-65
2022/10/10 14:24:25;;;;;;;12.50;3.00;;;;;;;17.91;45.59;99458.77;223553;1254;139142;-64
2022/10/10 14:29:28;;;;;;;13.90;3.50;;;;;;;17.87;45.51;99452.52;223633;1253;139688;-64
2022/10/10 14:34:31;;;;;;;9.50;2.70;;;;;;;17.84;45.52;99449.74;224137;1244;140394;-64
2022/10/10 14:39:34;;;;;;;6.50;3.20;;;;;;;17.80;45.64;99443.90;223446;1257;140123;-64
2022/10/10 14:44:37;;;;;;;5.20;2.10;;;;;;;17.74;45.82;99435.61;223425;1251;139479;-64
2022/10/10 14:49:40;;;;;;;5.10;2.70;;;;;;;17.69;45.94;99436.60;223486;1254;139400;-65
2022/10/10 14:54:42;;;;;;;7.50;2.10;;;;;;;17.63;46.08;99432.25;223523;1253;139782;-64
2022/10/10 14:59:45;;;;;;;3.90;2.10;;;;;;;17.62;46.20;99428.75;223596;1251;139264;-64
2022/10/10 15:04:53;;;;;;;7.00;2.20;;;;;;;17.58;46.42;99421.52;223510;1258;139895;-63
2022/10/10 15:09:56;;;;;;;5.10;2.60;;;;;;;17.54;46.55;99418.84;224094;1247;140237;-63
2022/10/10 15:15:19;;;;;;;4.80;2.40;;;;;;;17.48;46.76;99420.10;223541;1248;139753;-66
2022/10/10 15:20:29;;;;;;;9.10;3.70;;;;;;;17.40;46.97;99418.42;224113;1244;139424;-65
2022/10/10 15:25:33;;;;;;;8.10;3.10;;;;;;;17.32;47.27;99418.36;223499;1254;139036;-65
2022/10/10 15:30:37;;;;;;;85.60;59.60;;;;;;;17.24;47.43;99415.85;223587;1255;139207;-62
2022/10/10 15:35:45;;;;;;;21.10;12.70;;;;;;;17.20;48.00;99412.86;224245;1247;140189;-64
2022/10/10 15:41:11;;;;;;;9.40;3.80;;;;;;;17.14;48.07;99412.55;223491;1256;140251;-64
2022/10/10 15:46:14;;;;;;;5.20;3.40;;;;;;;17.02;48.26;99413.86;223551;1247;140046;-64
2022/10/10 15:51:17;;;;;;;8.60;3.70;;;;;;;16.90;48.48;99406.63;223584;1254;139648;-65
2022/10/10 15:56:20;;;;;;;6.90;2.90;;;;;;;16.79;48.62;99402.65;224066;1247;138914;-65
2022/10/10 16:01:25;;;;;;;12.70;3.30;;;;;;;16.69;48.90;99402.76;224044;1243;139830;-64
2022/10/10 16:06:28;;;;;;;9.00;3.20;;;;;;;16.54;49.27;99404.87;223313;1257;139470;-64
2022/10/10 16:11:31;;;;;;;250.40;175.60;;;;;;;16.36;49.58;99408.66;223431;1257;140557;-64
2022/10/10 16:16:34;;;;;;;23.10;11.40;;;;;;;16.25;50.18;99407.22;223415;1254;140337;-63
2022/10/10 16:21:37;;;;;;;15.30;5.20;;;;;;;16.13;50.42;99410.13;224157;1247;140184;-64
2022/10/10 16:26:40;;;;;;;23.10;4.80;;;;;;;15.98;50.67;99414.16;224096;1247;139346;-64
2022/10/10 16:31:43;;;;;;;19.40;7.20;;;;;;;15.83;50.88;99410.54;224126;1253;139821;-63
2022/10/10 16:36:46;;;;;;;15.80;6.70;;;;;;;15.68;51.45;99405.06;224081;1240;140355;-63
2022/10/10 16:41:49;;;;;;;15.60;5.40;;;;;;;15.52;51.47;99402.83;223646;1254;140864;-63
2022/10/10 16:46:52;;;;;;;16.60;5.70;;;;;;;15.41;51.84;99404.59;223599;1254;139951;-64
2022/10/10 16:51:55;;;;;;;14.90;6.60;;;;;;;15.31;51.94;99398.53;223537;1251;140332;-64
2022/10/10 16:56:58;;;;;;;19.40;7.00;;;;;;;15.23;52.25;99401.54;223580;1253;139974;-65
2022/10/10 17:02:01;;;;;;;20.40;8.00;;;;;;;15.15;52.25;99398.16;224043;1247;140018;-64
2022/10/10 17:07:04;;;;;;;16.90;7.10;;;;;;;15.09;52.34;99402.87;223522;1259;139838;-64
2022/10/10 17:12:07;;;;;;;19.10;8.20;;;;;;;14.99;52.59;99400.09;223673;1254;140387;-65
2022/10/10 17:17:10;;;;;;;16.70;8.60;;;;;;;14.90;52.71;99399.30;224062;1247;139616;-63
2022/10/10 17:22:15;;;;;;;14.10;8.50;;;;;;;14.83;52.67;99399.27;223583;1254;139186;-63
2022/10/10 17:27:18;;;;;;;17.00;8.50;;;;;;;14.75;52.86;99397.00;224090;1247;140495;-64
2022/10/10 17:32:22;;;;;;;16.30;9.10;;;;;;;14.68;52.71;99389.71;223525;1248;139706;-64
2022/10/10 17:37:25;;;;;;;16.60;9.40;;;;;;;14.59;52.95;99387.46;223441;1256;139672;-64
2022/10/10 17:42:29;;;;;;;20.10;10.00;;;;;;;14.51;53.05;99380.56;224138;1246;140109;-63
2022/10/10 17:47:34;;;;;;;18.00;9.00;;;;;;;14.43;53.17;99377.53;224121;1241;140354;-63
2022/10/10 17:52:37;;;;;;;19.90;9.60;;;;;;;14.36;53.32;99375.71;223553;1253;140084;-64
2022/10/10 17:57:40;;;;;;;16.50;8.70;;;;;;;14.29;53.30;99374.27;223579;1255;139944;-64
2022/10/10 18:02:50;;;;;;;17.20;9.20;;;;;;;14.23;53.29;99373.48;223582;1247;140673;-64
2022/10/10 18:07:53;;;;;;;18.00;10.00;;;;;;;14.15;53.20;99366.50;223568;1252;139582;-64
2022/10/10 18:12:57;;;;;;;22.10;9.80;;;;;;;14.08;53.30;99368.44;223564;1254;140946;-64
2022/10/10 18:18:01;;;;;;;15.50;10.40;;;;;;;13.98;53.37;99359.20;224144;1243;139312;-63
2022/10/10 18:23:04;;;;;;;20.30;10.60;;;;;;;13.90;53.53;99360.62;223606;1254;139675;-63
2022/10/10 18:28:07;;;;;;;21.10;10.10;;;;;;;13.85;53.90;99356.73;224115;1247;140171;-63
2022/10/10 18:33:10;;;;;;;17.10;8.60;;;;;;;13.80;53.67;99356.52;223528;1250;140783;-63
2022/10/10 18:38:13;;;;;;;19.00;10.10;;;;;;;13.72;53.76;99354.19;224040;1247;139722;-62
2022/10/10 18:43:18;;;;;;;17.70;9.10;;;;;;;13.66;53.88;99349.67;223537;1238;140234;-63
2022/10/10 18:48:21;;;;;;;19.90;9.50;;;;;;;13.58;53.79;99344.52;223483;1247;140244;-63
2022/10/10 18:53:24;;;;;;;17.10;10.20;;;;;;;13.48;54.11;99341.08;224203;1247;139910;-63
2022/10/10 18:58:29;;;;;;;22.30;11.00;;;;;;;13.41;54.14;99346.41;223546;1254;139574;-63
2022/10/10 19:03:35;;;;;;;26.30;11.20;;;;;;;13.33;54.15;99347.98;223503;1255;141175;-64
2022/10/10 19:08:39;;;;;;;48.90;29.00;;;;;;;13.26;54.72;99352.06;223420;1261;140495;-63
2022/10/10 19:13:42;;;;;;;22.60;13.00;;;;;;;13.25;54.87;99351.57;224040;1240;140508;-64
2022/10/10 19:18:46;;;;;;;19.60;10.70;;;;;;;13.26;54.81;99357.24;224024;1241;140697;-63
2022/10/10 19:23:49;;;;;;;19.10;11.10;;;;;;;13.18;54.75;99354.00;223652;1248;140572;-64
2022/10/10 19:28:52;;;;;;;19.90;10.10;;;;;;;13.08;54.90;99357.51;223555;1247;139681;-63
2022/10/10 19:33:56;;;;;;;22.90;11.10;;;;;;;12.99;54.87;99354.75;223534;1248;140201;-62
2022/10/10 19:38:59;;;;;;;24.50;11.00;;;;;;;12.93;55.20;99360.14;223499;1247;139385;-63
2022/10/10 19:44:04;;;;;;;19.30;11.00;;;;;;;12.84;55.35;99363.73;223538;1257;139694;-63
2022/10/10 19:49:08;;;;;;;112.90;71.10;;;;;;;12.76;55.45;99363.55;224030;1247;141153;-63
2022/10/10 19:54:11;;;;;;;24.20;13.60;;;;;;;12.71;55.59;99363.35;224129;1247;142517;-64
2022/10/10 19:59:14;;;;;;;23.20;11.30;;;;;;;12.66;55.86;99360.65;223555;1255;139643;-63
2022/10/10 20:04:17;;;;;;;30.20;16.10;;;;;;;12.62;55.99;99361.25;223544;1240;140317;-64
2022/10/10 20:09:20;;;;;;;21.30;11.60;;;;;;;12.59;56.00;99359.19;223537;1253;139743;-64
2022/10/10 20:14:23;;;;;;;22.20;12.10;;;;;;;12.52;56.31;99360.30;223622;1254;140402;-63
2022/10/10 20:19:26;;;;;;;21.50;11.40;;;;;;;12.45;56.48;99360.80;223543;1254;140426;-63
2022/10/10 20:24:29;;;;;;;22.70;11.70;;;;;;;12.36;56.45;99362.45;224158;1247;140057;-64
2022/10/10 20:29:32;;;;;;;27.00;12.50;;;;;;;12.27;56.57;99367.27;224185;1244;140357;-64
2022/10/10 20:34:35;;;;;;;28.80;13.90;;;;;;;12.19;56.89;99368.81;224186;1247;139691;-64
2022/10/10 20:39:38;;;;;;;27.00;13.60;;;;;;;12.11;56.84;99367.05;224149;1240;140135;-64
2022/10/10 20:44:42;;;;;;;30.00;14.00;;;;;;;12.02;56.91;99374.88;223554;1248;141472;-64
2022/10/10 20:49:45;;;;;;;28.20;14.00;;;;;;;11.95;57.24;99379.80;223449;1239;140130;-64
2022/10/10 20:54:47;;;;;;;27.50;14.50;;;;;;;11.87;57.41;99380.46;223582;1254;139841;-64
2022/10/10 20:59:50;;;;;;;28.40;14.40;;;;;;;11.86;57.58;99381.80;223658;1254;139756;-64
2022/10/10 21:04:53;;;;;;;32.00;15.60;;;;;;;11.88;57.72;99382.88;224058;1247;140338;-65
2022/10/10 21:09:58;;;;;;;30.70;15.70;;;;;;;11.86;57.88;99376.27;223575;1248;140611;-64
2022/10/10 21:15:01;;;;;;;25.30;15.60;;;;;;;11.86;58.14;99380.18;224100;1247;140148;-65
2022/10/10 21:20:05;;;;;;;25.00;15.10;;;;;;;11.85;58.17;99379.16;223553;1247;139649;-64
2022/10/10 21:25:08;;;;;;;30.60;16.00;;;;;;;11.82;58.25;99378.99;223646;1254;140108;-65
2022/10/10 21:30:11;;;;;;;29.70;15.50;;;;;;;11.75;58.23;99374.92;223661;1255;140151;-65
2022/10/10 21:35:14;;;;;;;33.60;18.00;;;;;;;11.72;58.37;99385.27;222789;1240;141083;-64
2022/10/10 21:40:18;;;;;;;32.00;16.90;;;;;;;11.66;58.60;99385.48;221323;1244;139756;-64
2022/10/10 21:45:24;;;;;;;32.00;16.30;;;;;;;11.58;58.55;99384.71;221345;1247;140170;-64
2022/10/10 21:50:28;;;;;;;28.50;17.20;;;;;;;11.54;58.60;99383.17;221398;1246;140029;-63
2022/10/10 21:55:36;;;;;;;32.00;16.60;;;;;;;11.50;58.90;99380.73;221472;1246;139599;-62
2022/10/10 22:00:41;;;;;;;30.30;15.90;;;;;;;11.43;59.00;99385.58;221411;1246;139507;-62
2022/10/10 22:05:45;;;;;;;30.30;16.00;;;;;;;11.39;59.14;99386.20;221456;1246;140478;-62
2022/10/10 22:10:50;;;;;;;30.90;15.90;;;;;;;11.33;59.49;99388.83;221273;1246;140002;-62
2022/10/10 22:15:55;;;;;;;30.70;16.40;;;;;;;11.29;59.52;99388.75;221300;1240;139476;-63
2022/10/10 22:21:05;;;;;;;26.80;15.80;;;;;;;11.30;59.82;99389.39;221276;1240;141120;-62
2022/10/10 22:26:12;;;;;;;30.90;15.30;;;;;;;11.37;59.93;99387.92;221319;1240;140272;-63
2022/10/10 22:31:19;;;;;;;28.00;15.40;;;;;;;11.40;60.12;99383.30;221301;1243;139374;-64
2022/10/10 22:36:23;;;;;;;26.80;15.40;;;;;;;11.42;59.93;99385.11;221523;1246;139619;-64
2022/10/10 22:41:27;;;;;;;25.80;15.70;;;;;;;11.44;60.46;99383.58;221509;1246;140550;-63
2022/10/10 22:46:30;;;;;;;27.60;16.20;;;;;;;11.45;60.06;99380.70;221393;1239;139693;-63
2022/10/10 22:51:34;;;;;;;34.20;17.40;;;;;;;11.40;60.03;99383.11;221440;1246;140530;-64
2022/10/10 22:56:37;;;;;;;29.10;16.40;;;;;;;11.34;60.20;99384.86;221334;1246;139631;-65
2022/10/10 23:01:40;;;;;;;31.50;16.70;;;;;;;11.29;60.16;99388.89;221361;1247;139455;-65
2022/10/10 23:06:46;;;;;;;28.30;16.10;;;;;;;11.22;60.27;99392.51;221206;1249;140488;-64
2022/10/10 23:11:49;;;;;;;28.20;16.30;;;;;;;11.14;60.37;99394.92;221359;1240;140251;-63
2022/10/10 23:16:53;;;;;;;24.40;14.80;;;;;;;11.10;60.63;99400.66;221337;1248;139721;-63
2022/10/10 23:21:57;;;;;;;28.70;16.90;;;;;;;11.08;60.56;99403.61;221488;1246;140018;-63